createdAt,value
2022-08-28T00:01:55.667Z,71.38
2022-08-28T00:04:22.309Z,71.49
2022-08-28T00:06:49.241Z,72.14
2022-08-28T00:09:15.745Z,72.32
2022-08-28T00:11:42.302Z,71.84
2022-08-28T00:14:10.843Z,71.75
2022-08-28T00:16:37.645Z,72.74
2022-08-28T00:19:05.013Z,72.81
2022-08-28T00:21:32.277Z,72.15
2022-08-28T00:24:00.006Z,72.83
2022-08-28T00:26:26.625Z,72.89
2022-08-28T00:28:53.223Z,72.25
2022-08-28T00:31:19.857Z,72.37
2022-08-28T00:33:48.164Z,72.88
2022-08-28T00:36:14.899Z,72.86
2022-08-28T00:38:41.414Z,73.57
2022-08-28T00:41:09.059Z,73.03
2022-08-28T00:43:44.498Z,72.85
2022-08-28T00:46:20.987Z,72.68
2022-08-28T00:48:48.032Z,72.60
2022-08-28T00:51:16.450Z,73.43
2022-08-28T00:53:43.517Z,73.82
2022-08-28T00:56:13.136Z,72.75
2022-08-28T00:58:40.686Z,72.18
2022-08-28T01:01:07.183Z,73.13
2022-08-28T01:03:33.734Z,73.14
2022-08-28T01:06:00.438Z,73.04
2022-08-28T01:08:30.287Z,73.50
2022-08-28T01:10:59.472Z,72.70
2022-08-28T01:13:26.647Z,73.76
2022-08-28T01:15:54.291Z,73.92
2022-08-28T01:18:21.166Z,72.57
2022-08-28T01:20:56.691Z,73.04
2022-08-28T01:23:28.803Z,74.13
2022-08-28T01:25:55.332Z,74.69
2022-08-28T01:28:21.891Z,75.63
2022-08-28T01:30:49.056Z,75.38
2022-08-28T01:33:15.917Z,75.32
2022-08-28T01:35:45.034Z,75.12
2022-08-28T01:38:12.122Z,76.20
2022-08-28T01:40:46.779Z,75.61
2022-08-28T01:43:17.327Z,77.20
2022-08-28T01:45:46.855Z,78.61
2022-08-28T01:48:15.350Z,78.83
2022-08-28T01:50:42.106Z,80.28
2022-08-28T01:53:11.954Z,81.38
2022-08-28T01:55:39.306Z,81.75
2022-08-28T01:58:06.918Z,82.44
2022-08-28T02:00:33.481Z,82.92
2022-08-28T02:03:00.318Z,82.74
2022-08-28T02:05:30.122Z,82.64
2022-08-28T02:07:57.801Z,83.31
2022-08-28T02:10:26.441Z,83.13
2022-08-28T02:12:54.973Z,82.53
2022-08-28T02:15:27.701Z,82.18
2022-08-28T02:17:54.654Z,82.35
2022-08-28T02:20:21.490Z,82.36
2022-08-28T02:22:48.497Z,81.92
2022-08-28T02:25:15.309Z,83.01
2022-08-28T02:27:41.798Z,82.69
2022-08-28T02:30:10.404Z,82.27
2022-08-28T02:32:37.039Z,82.12
2022-08-28T02:35:05.445Z,81.49
2022-08-28T02:37:38.431Z,81.79
2022-08-28T02:40:05.662Z,82.78
2022-08-28T02:42:32.205Z,82.45
2022-08-28T02:44:58.702Z,82.74
2022-08-28T02:47:25.285Z,82.17
2022-08-28T02:49:51.802Z,81.46
2022-08-28T02:52:18.433Z,82.05
2022-08-28T02:54:45.744Z,82.30
2022-08-28T02:57:12.368Z,81.95
2022-08-28T02:59:38.916Z,82.38
2022-08-28T03:02:06.483Z,83.03
2022-08-28T03:04:42.119Z,82.88
2022-08-28T03:07:08.616Z,82.31
2022-08-28T03:09:37.658Z,82.40
2022-08-28T03:12:05.117Z,81.76
2022-08-28T03:14:31.676Z,81.52
2022-08-28T03:16:58.253Z,81.10
2022-08-28T03:19:24.823Z,80.93
2022-08-28T03:21:54.222Z,81.30
2022-08-28T03:24:20.839Z,80.59
2022-08-28T03:26:48.259Z,80.73
2022-08-28T03:29:14.873Z,81.35
2022-08-28T03:31:41.383Z,81.45
2022-08-28T03:34:08.005Z,81.45
2022-08-28T03:36:34.611Z,81.54
2022-08-28T03:39:04.344Z,81.87
2022-08-28T03:41:31.634Z,82.24
2022-08-28T03:43:59.543Z,82.82
2022-08-28T03:46:27.501Z,82.55
2022-08-28T03:48:54.857Z,82.65
2022-08-28T03:51:29.200Z,82.81
2022-08-28T03:53:59.134Z,83.01
2022-08-28T03:56:27.891Z,83.14
2022-08-28T03:58:58.047Z,83.18
2022-08-28T04:01:25.473Z,83.28
2022-08-28T04:03:52.051Z,83.42
2022-08-28T04:06:18.670Z,82.94
2022-08-28T04:08:45.456Z,83.15
2022-08-28T04:11:12.103Z,83.01
2022-08-28T04:13:38.653Z,83.37
2022-08-28T04:16:11.048Z,83.51
2022-08-28T04:18:40.625Z,84.02
2022-08-28T04:21:19.113Z,83.92
2022-08-28T04:23:46.841Z,83.97
2022-08-28T04:26:19.223Z,83.81
2022-08-28T04:28:46.554Z,83.44
2022-08-28T04:31:13.242Z,83.36
2022-08-28T04:33:39.902Z,83.59
2022-08-28T04:36:18.405Z,83.91
2022-08-28T04:38:45.083Z,83.81
2022-08-28T04:41:14.796Z,83.72
2022-08-28T04:43:42.376Z,83.78
2022-08-28T04:46:11.693Z,84.04
2022-08-28T04:48:38.977Z,83.88
2022-08-28T04:51:07.694Z,83.80
2022-08-28T04:53:34.281Z,84.24
2022-08-28T04:56:04.035Z,84.05
2022-08-28T04:58:30.825Z,84.12
2022-08-28T05:00:57.490Z,83.45
2022-08-28T05:03:24.027Z,84.23
2022-08-28T05:05:53.017Z,83.82
2022-08-28T05:08:22.831Z,83.17
2022-08-28T05:10:49.740Z,82.61
2022-08-28T05:13:18.194Z,82.59
2022-08-28T05:15:47.380Z,82.88
2022-08-28T05:18:15.034Z,82.39
2022-08-28T05:20:44.106Z,82.07
2022-08-28T05:23:11.829Z,82.33
2022-08-28T05:25:41.423Z,82.86
2022-08-28T05:28:11.491Z,82.88
2022-08-28T05:30:40.424Z,82.81
2022-08-28T05:33:07.853Z,81.99
2022-08-28T05:35:38.957Z,81.76
2022-08-28T05:38:06.757Z,81.71
2022-08-28T05:40:33.991Z,82.01
2022-08-28T05:43:00.513Z,82.29
2022-08-28T05:45:27.088Z,82.43
2022-08-28T05:47:53.566Z,82.23
2022-08-28T05:50:20.234Z,82.61
2022-08-28T05:52:46.867Z,81.94
2022-08-28T05:55:13.563Z,81.27
2022-08-28T05:57:40.446Z,81.74
2022-08-28T06:00:08.333Z,81.47
2022-08-28T06:02:34.821Z,81.27
2022-08-28T06:05:02.184Z,81.21
2022-08-28T06:07:28.713Z,81.21
2022-08-28T06:09:56.835Z,80.78
2022-08-28T06:12:23.351Z,80.12
2022-08-28T06:14:50.001Z,78.79
2022-08-28T06:17:16.678Z,78.80
2022-08-28T06:19:50.071Z,79.02
2022-08-28T06:22:16.556Z,78.30
2022-08-28T06:24:43.082Z,78.30
2022-08-28T06:27:09.602Z,78.52
2022-08-28T06:29:36.111Z,77.83
2022-08-28T06:32:03.762Z,78.00
2022-08-28T06:34:30.419Z,77.82
2022-08-28T06:36:56.925Z,76.94
2022-08-28T06:39:23.536Z,76.14
2022-08-28T06:41:50.267Z,75.45
2022-08-28T06:44:18.911Z,74.57
2022-08-28T06:46:46.658Z,73.69
2022-08-28T06:49:13.510Z,73.52
2022-08-28T06:51:40.527Z,72.69
2022-08-28T06:54:07.637Z,73.22
2022-08-28T06:56:34.556Z,73.11
2022-08-28T06:59:01.048Z,72.34
2022-08-28T07:01:33.897Z,71.47
2022-08-28T07:04:04.404Z,71.15
2022-08-28T07:06:35.263Z,69.78
2022-08-28T07:09:04.496Z,69.81
2022-08-28T07:11:31.936Z,68.78
2022-08-28T07:13:59.079Z,68.98
2022-08-28T07:16:29.720Z,68.69
2022-08-28T07:18:56.917Z,68.72
2022-08-28T07:21:23.451Z,68.82
2022-08-28T07:23:50.707Z,68.04
2022-08-28T07:26:22.540Z,66.80
2022-08-28T07:28:49.836Z,66.75
2022-08-28T07:31:20.056Z,66.37
2022-08-28T07:33:46.803Z,66.71
2022-08-28T07:36:29.052Z,64.83
2022-08-28T07:38:58.207Z,63.95
2022-08-28T07:41:27.629Z,63.79
2022-08-28T07:43:54.257Z,64.03
2022-08-28T07:46:20.836Z,63.10
2022-08-28T07:48:47.434Z,63.90
2022-08-28T07:51:13.980Z,63.73
2022-08-28T07:53:40.490Z,63.31
2022-08-28T07:56:07.148Z,63.40
2022-08-28T07:58:33.765Z,63.03
2022-08-28T08:01:00.682Z,61.21
2022-08-28T08:03:30.787Z,60.83
2022-08-28T08:06:03.003Z,61.23
2022-08-28T08:08:31.063Z,61.63
2022-08-28T08:11:11.359Z,62.18
2022-08-28T08:13:45.108Z,63.05
2022-08-28T08:16:18.050Z,60.74
2022-08-28T08:18:45.135Z,59.53
2022-08-28T08:21:14.007Z,58.83
2022-08-28T08:23:40.855Z,58.68
2022-08-28T08:26:10.954Z,57.88
2022-08-28T08:28:39.125Z,57.56
2022-08-28T08:31:10.330Z,58.82
2022-08-28T08:33:39.091Z,59.15
2022-08-28T08:36:07.085Z,58.96
2022-08-28T08:38:34.496Z,58.12
2022-08-28T08:41:04.738Z,57.77
2022-08-28T08:43:34.481Z,57.58
2022-08-28T08:46:01.062Z,58.68
2022-08-28T08:48:34.249Z,60.09
2022-08-28T08:51:14.684Z,60.56
2022-08-28T08:53:48.835Z,61.01
2022-08-28T08:56:17.631Z,60.50
2022-08-28T08:58:49.470Z,61.18
2022-08-28T09:01:44.211Z,62.35
2022-08-28T09:04:16.798Z,62.82
2022-08-28T09:07:16.907Z,61.66
2022-08-28T09:09:50.568Z,62.19
2022-08-28T09:12:28.222Z,59.63
2022-08-28T09:15:03.523Z,59.78
2022-08-28T09:17:34.500Z,59.63
2022-08-28T09:20:01.045Z,59.88
2022-08-28T09:22:27.644Z,60.85
2022-08-28T09:24:54.972Z,60.74
2022-08-28T09:27:23.798Z,61.02
2022-08-28T09:30:08.424Z,59.04
2022-08-28T09:32:38.316Z,58.55
2022-08-28T09:35:15.313Z,58.71
2022-08-28T09:37:43.209Z,59.18
2022-08-28T09:40:17.633Z,59.44
2022-08-28T09:43:06.781Z,59.00
2022-08-28T09:45:33.402Z,58.55
2022-08-28T09:48:00.273Z,58.92
2022-08-28T09:50:40.647Z,59.22
2022-08-28T09:53:10.707Z,57.80
2022-08-28T09:55:46.648Z,56.32
2022-08-28T09:58:13.952Z,56.49
2022-08-28T10:00:51.230Z,56.25
2022-08-28T10:03:34.541Z,54.71
2022-08-28T10:06:10.043Z,54.84
2022-08-28T10:08:51.697Z,55.54
2022-08-28T10:11:29.879Z,56.65
2022-08-28T10:14:34.523Z,56.71
2022-08-28T10:17:29.056Z,55.89
2022-08-28T10:20:20.160Z,54.34
2022-08-28T10:22:49.566Z,54.32
2022-08-28T10:25:17.863Z,54.95
2022-08-28T10:28:15.691Z,56.03
2022-08-28T10:30:58.691Z,56.56
2022-08-28T10:33:38.230Z,56.77
2022-08-28T10:36:34.671Z,55.58
2022-08-28T10:39:10.592Z,56.90
2022-08-28T10:41:58.380Z,56.99
2022-08-28T10:44:39.223Z,56.48
2022-08-28T10:47:07.760Z,55.62
2022-08-28T10:49:40.647Z,55.22
2022-08-28T10:52:11.443Z,55.78
2022-08-28T10:54:46.533Z,55.75
2022-08-28T10:57:39.414Z,53.64
2022-08-28T11:00:18.872Z,53.97
2022-08-28T11:02:48.114Z,52.94
2022-08-28T11:05:14.978Z,52.53
2022-08-28T11:07:45.041Z,52.28
2022-08-28T11:10:30.415Z,51.50
2022-08-28T11:12:59.574Z,50.10
2022-08-28T11:15:36.459Z,48.98
2022-08-28T11:18:17.455Z,48.42
2022-08-28T11:21:18.154Z,48.81
2022-08-28T11:24:09.498Z,48.97
2022-08-28T11:26:47.265Z,49.83
2022-08-28T11:29:54.117Z,50.80
2022-08-28T11:32:41.464Z,50.15
2022-08-28T11:35:46.306Z,48.62
2022-08-28T11:38:44.716Z,49.56
2022-08-28T11:41:16.165Z,49.20
2022-08-28T11:43:44.680Z,48.64
2022-08-28T11:46:16.949Z,49.03
2022-08-28T11:48:49.782Z,48.42
2022-08-28T11:51:41.677Z,48.33
2022-08-28T11:54:32.355Z,48.07
2022-08-28T11:57:10.414Z,48.60
2022-08-28T11:59:39.658Z,48.57
2022-08-28T12:02:24.815Z,48.24
2022-08-28T12:04:51.519Z,48.74
2022-08-28T12:07:20.290Z,49.50
2022-08-28T12:09:48.573Z,49.39
2022-08-28T12:12:21.824Z,48.52
2022-08-28T12:14:48.441Z,49.53
2022-08-28T12:17:15.018Z,49.97
2022-08-28T12:19:55.854Z,50.50
2022-08-28T12:22:41.874Z,50.33
2022-08-28T12:25:19.054Z,50.80
2022-08-28T12:27:45.690Z,51.55
2022-08-28T12:30:12.343Z,51.99
2022-08-28T12:32:44.812Z,52.29
2022-08-28T12:35:23.984Z,51.76
2022-08-28T12:37:53.605Z,52.04
2022-08-28T12:40:46.977Z,52.48
2022-08-28T12:43:28.730Z,53.42
2022-08-28T12:46:19.257Z,53.13
2022-08-28T12:49:01.055Z,53.94
2022-08-28T12:51:36.160Z,53.37
2022-08-28T12:54:07.778Z,53.65
2022-08-28T12:56:37.009Z,53.73
2022-08-28T12:59:27.516Z,53.85
2022-08-28T13:01:54.952Z,54.13
2022-08-28T13:04:28.685Z,53.84
2022-08-28T13:07:12.609Z,54.40
2022-08-28T13:09:48.672Z,54.92
2022-08-28T13:12:56.291Z,54.67
2022-08-28T13:15:42.548Z,55.30
2022-08-28T13:18:09.471Z,55.50
2022-08-28T13:20:37.659Z,55.45
2022-08-28T13:23:05.093Z,56.26
2022-08-28T13:25:36.829Z,56.38
2022-08-28T13:28:12.764Z,55.28
2022-08-28T13:30:39.666Z,55.46
2022-08-28T13:33:24.033Z,56.04
2022-08-28T13:35:51.694Z,55.31
2022-08-28T13:38:21.657Z,55.36
2022-08-28T13:41:12.901Z,55.31
2022-08-28T13:43:44.968Z,55.63
2022-08-28T13:46:11.700Z,55.18
2022-08-28T13:48:38.447Z,56.02
2022-08-28T13:51:10.761Z,56.30
2022-08-28T13:53:41.593Z,56.04
2022-08-28T13:56:08.177Z,55.56
2022-08-28T13:58:34.914Z,56.40
2022-08-28T14:01:02.731Z,56.33
2022-08-28T14:03:29.294Z,56.35
2022-08-28T14:05:56.531Z,57.00
2022-08-28T14:08:23.044Z,56.47
2022-08-28T14:10:50.873Z,56.31
2022-08-28T14:13:17.407Z,56.29
2022-08-28T14:15:43.884Z,56.09
2022-08-28T14:18:10.366Z,55.11
2022-08-28T14:20:37.793Z,55.63
2022-08-28T14:23:04.300Z,56.63
2022-08-28T14:25:30.878Z,55.27
2022-08-28T14:27:57.865Z,55.35
2022-08-28T14:30:24.916Z,55.46
2022-08-28T14:32:51.671Z,56.58
2022-08-28T14:35:18.185Z,55.65
2022-08-28T14:37:44.666Z,55.30
2022-08-28T14:40:13.087Z,55.40
2022-08-28T14:42:39.888Z,54.54
2022-08-28T14:45:07.231Z,54.41
2022-08-28T14:47:33.752Z,54.14
2022-08-28T14:50:00.321Z,53.79
2022-08-28T14:52:26.920Z,53.27
2022-08-28T14:54:53.430Z,53.11
2022-08-28T14:57:20.647Z,53.29
2022-08-28T14:59:48.259Z,53.83
2022-08-28T15:02:14.733Z,54.51
2022-08-28T15:04:41.850Z,53.96
2022-08-28T15:07:10.835Z,53.14
2022-08-28T15:09:40.746Z,53.17
2022-08-28T15:12:07.788Z,53.92
2022-08-28T15:14:35.173Z,53.47
2022-08-28T15:17:02.051Z,53.31
2022-08-28T15:19:28.853Z,53.64
2022-08-28T15:21:56.589Z,53.91
2022-08-28T15:24:25.680Z,54.44
2022-08-28T15:26:52.418Z,54.15
2022-08-28T15:29:19.691Z,54.40
2022-08-28T15:31:48.129Z,54.67
2022-08-28T15:34:18.141Z,53.99
2022-08-28T15:36:54.693Z,52.55
2022-08-28T15:39:26.325Z,53.00
2022-08-28T15:41:52.883Z,52.57
2022-08-28T15:44:19.469Z,52.65
2022-08-28T15:46:52.924Z,52.77
2022-08-28T15:49:23.890Z,52.21
2022-08-28T15:51:51.279Z,52.27
2022-08-28T15:54:17.906Z,53.42
2022-08-28T15:56:45.033Z,53.40
2022-08-28T15:59:12.115Z,53.63
2022-08-28T16:01:38.914Z,53.91
2022-08-28T16:04:06.247Z,53.69
2022-08-28T16:06:33.560Z,53.98
2022-08-28T16:09:00.182Z,53.76
2022-08-28T16:11:27.004Z,53.38
2022-08-28T16:13:59.202Z,53.77
2022-08-28T16:16:26.007Z,54.15
2022-08-28T16:18:55.052Z,54.63
2022-08-28T16:21:28.304Z,54.72
2022-08-28T16:23:55.463Z,54.29
2022-08-28T16:26:22.537Z,54.23
2022-08-28T16:28:50.843Z,54.69
2022-08-28T16:37:55.433Z,55.17
2022-08-28T16:40:21.983Z,56.43
2022-08-28T16:42:51.588Z,57.57
2022-08-28T16:45:22.462Z,57.44
2022-08-28T16:47:49.278Z,57.72
2022-08-28T16:50:23.706Z,57.29
2022-08-28T16:52:50.837Z,57.47
2022-08-28T16:55:21.098Z,57.90
2022-08-28T16:57:47.704Z,58.21
2022-08-28T17:00:20.640Z,58.15
2022-08-28T17:02:47.215Z,59.04
2022-08-28T17:05:16.495Z,59.76
2022-08-28T17:07:43.015Z,60.09
2022-08-28T17:10:16.426Z,60.60
2022-08-28T17:13:05.719Z,60.67
2022-08-28T17:15:32.273Z,60.08
2022-08-28T17:17:58.840Z,59.76
2022-08-28T17:20:57.534Z,59.06
2022-08-28T17:23:27.208Z,59.69
2022-08-28T17:26:12.870Z,60.85
2022-08-28T17:32:27.981Z,61.32
2022-08-28T17:34:54.502Z,61.38
2022-08-28T17:37:21.022Z,61.51
2022-08-28T17:39:48.337Z,60.98
2022-08-28T17:42:15.035Z,61.14
2022-08-28T17:44:41.684Z,61.08
2022-08-28T17:47:08.235Z,61.24
2022-08-28T17:49:35.180Z,61.38
2022-08-28T17:54:42.408Z,61.61
2022-08-28T17:57:12.687Z,62.77
2022-08-28T17:59:39.347Z,63.51
2022-08-28T18:02:06.624Z,64.31
2022-08-28T18:04:33.956Z,63.89
2022-08-28T18:07:00.678Z,63.71
2022-08-28T18:09:27.544Z,59.51
2022-08-28T18:11:54.221Z,60.95
2022-08-28T18:14:21.282Z,60.20
2022-08-28T18:24:29.987Z,58.00
2022-08-28T18:30:34.343Z,58.17
2022-08-28T18:33:01.781Z,58.77
2022-08-28T18:35:31.691Z,58.60
2022-08-28T18:37:59.045Z,59.11
2022-08-28T18:40:25.828Z,59.34
2022-08-28T18:42:55.352Z,59.64
2022-08-28T18:51:43.827Z,60.47
2022-08-28T18:54:12.328Z,60.83
2022-08-28T18:57:03.877Z,60.96
2022-08-28T18:59:43.192Z,61.04
2022-08-28T19:02:18.107Z,61.05
2022-08-28T19:10:47.425Z,61.87
2022-08-28T19:13:14.267Z,61.78
2022-08-28T19:19:10.448Z,62.27
2022-08-28T19:21:52.825Z,62.18
2022-08-28T19:24:52.584Z,62.23
2022-08-28T19:27:22.235Z,62.02
2022-08-28T19:33:05.690Z,62.24
2022-08-28T19:35:32.172Z,62.32
2022-08-28T19:38:20.061Z,62.30
2022-08-28T19:41:06.113Z,62.33
2022-08-28T19:43:43.123Z,62.16
2022-08-28T19:46:19.590Z,62.47
2022-08-28T19:54:48.038Z,62.82
2022-08-28T19:57:16.904Z,63.05
2022-08-28T20:06:03.631Z,62.81
2022-08-28T20:08:31.017Z,62.72
2022-08-28T20:14:09.291Z,63.35
2022-08-28T20:16:36.948Z,63.16
2022-08-28T20:19:04.899Z,63.23
2022-08-28T20:21:42.866Z,63.54
2022-08-28T20:24:14.742Z,63.51
2022-08-28T20:26:43.735Z,63.52
2022-08-28T20:29:10.701Z,63.61
2022-08-28T20:34:44.598Z,63.70
2022-08-28T20:41:33.769Z,63.10
2022-08-28T20:44:24.493Z,64.85
2022-08-28T20:47:19.080Z,64.61
2022-08-28T20:50:31.390Z,64.15
2022-08-28T20:57:02.601Z,64.27
2022-08-28T21:03:25.151Z,64.69
2022-08-28T21:12:42.127Z,64.63
2022-08-28T21:15:25.420Z,64.42
2022-08-28T21:18:02.184Z,65.31
2022-08-28T21:24:20.233Z,66.05
2022-08-28T21:26:50.492Z,65.72
2022-08-28T21:29:29.535Z,65.50
2022-08-28T21:31:57.193Z,65.55
2022-08-28T21:34:23.795Z,65.59
2022-08-28T21:37:03.467Z,65.71
2022-08-28T21:39:36.870Z,65.48
2022-08-28T21:42:32.778Z,65.64
2022-08-28T21:45:27.285Z,65.85
2022-08-28T21:48:08.594Z,65.09
2022-08-28T22:02:03.531Z,65.98
2022-08-28T22:04:58.582Z,65.98
2022-08-28T22:07:49.153Z,67.34
2022-08-28T22:10:25.214Z,67.19
2022-08-28T22:13:29.177Z,68.10
2022-08-28T22:15:59.110Z,67.86
2022-08-28T22:19:01.427Z,68.06
2022-08-28T22:25:10.231Z,68.38
2022-08-28T22:27:49.884Z,68.86
2022-08-28T22:31:06.654Z,68.70
2022-08-28T22:36:45.064Z,68.95
2022-08-28T22:39:14.407Z,68.69
2022-08-28T22:45:27.450Z,69.68
2022-08-28T22:48:02.295Z,69.32
2022-08-28T22:50:28.915Z,69.55
2022-08-28T22:52:56.640Z,70.09
2022-08-28T22:55:23.546Z,70.19
2022-08-28T22:57:59.147Z,70.31
2022-08-28T23:01:03.449Z,69.62
2022-08-28T23:03:33.090Z,70.61
2022-08-28T23:06:01.152Z,71.25
2022-08-28T23:08:34.029Z,71.00
2022-08-28T23:11:01.217Z,71.75
2022-08-28T23:13:28.129Z,71.57
2022-08-28T23:16:00.266Z,71.31
2022-08-28T23:18:27.672Z,71.79
2022-08-28T23:21:01.794Z,71.08
2022-08-28T23:23:30.613Z,71.09
2022-08-28T23:25:57.117Z,71.38
2022-08-28T23:28:23.713Z,71.68
2022-08-28T23:31:17.175Z,71.90
2022-08-28T23:33:43.778Z,71.58
2022-08-28T23:36:10.686Z,71.87
2022-08-28T23:38:42.871Z,71.89
2022-08-28T23:41:10.447Z,71.48
2022-08-28T23:43:37.193Z,71.66
2022-08-28T23:46:03.746Z,71.56
2022-08-28T23:48:31.727Z,71.52
2022-08-28T23:50:58.579Z,71.50
2022-08-28T23:53:25.297Z,71.53
2022-08-28T23:55:51.823Z,71.80
2022-08-28T23:58:30.078Z,72.00
